Time;durP1;ratioP1;P1;durP2;ratioP2;P2;SDS_P1;SDS_P2;PMS_P1;PMS_P2;Temp;Humidity;BMP_temperature;BMP_pressure;BME280_temperature;BME280_humidity;BME280_pressure;Samples;Min_cycle;Max_cycle;Signal;HPM_P1;HPM_P2
2021/12/01 00:00:26;;;;;;;;;;;;;;;5.25;95.22;99113.34;4995966;28;1642;-86
2021/12/01 00:02:54;;;;;;;;;;;;;;;5.29;94.95;99117.09;4979065;28;1327;-86
2021/12/01 00:05:24;;;;;;;;;;;;;;;5.29;95.61;99101.63;4996439;28;1894;-87
2021/12/01 00:07:49;;;;;;;;;;;;;;;5.29;95.76;99092.69;4995998;28;1425;-85
2021/12/01 00:10:15;;;;;;;;;;;;;;;5.28;95.20;99094.59;4978494;28;1233;-86
2021/12/01 00:12:40;;;;;;;;;;;;;;;5.29;95.86;99087.25;4978732;28;1205;-86
2021/12/01 00:15:05;;;;;;;;;;;;;;;5.30;95.35;99083.47;4979031;28;1269;-86
2021/12/01 00:17:30;;;;;;;;;;;;;;;5.31;95.29;99080.47;4978801;28;1174;-87
2021/12/01 00:19:56;;;;;;;;;;;;;;;5.33;95.62;99081.00;4980290;28;1269;-87
2021/12/01 00:22:21;;;;;;;;;;;;;;;5.33;95.19;99072.88;4997075;28;996;-86
2021/12/01 00:24:46;;;;;;;;;;;;;;;5.34;95.37;99068.25;4979248;28;1365;-86
2021/12/01 00:27:11;;;;;;;;;;;;;;;5.33;95.74;99066.63;4995813;28;1973;-86
2021/12/01 00:29:37;;;;;;;;;;;;;;;5.34;95.31;99054.69;4979439;28;1702;-86
2021/12/01 00:32:03;;;;;;;;;;;;;;;5.35;95.76;99041.94;4996787;28;857;-86
2021/12/01 00:34:28;;;;;;;;;;;;;;;5.36;95.01;99040.84;4978550;28;1325;-86
2021/12/01 00:36:53;;;;;;;;;;;;;;;5.36;95.80;99032.72;4995601;28;786;-87
2021/12/01 00:39:19;;;;;;;;;;;;;;;5.37;95.22;99026.16;4978146;28;1742;-86
2021/12/01 00:41:44;;;;;;;;;;;;;;;5.37;95.32;99021.56;4978492;28;1260;-87
2021/12/01 00:44:10;;;;;;;;;;;;;;;5.39;95.69;99024.81;4978267;28;1308;-86
2021/12/01 00:46:52;;;;;;;;;;;;;;;5.40;95.23;99015.56;4978154;28;1973;-86
2021/12/01 00:49:18;;;;;;;;;;;;;;;5.40;95.95;99006.63;4977790;28;1363;-86
2021/12/01 00:51:43;;;;;;;;;;;;;;;5.39;95.63;99008.53;4978734;28;1001;-86
2021/12/01 00:54:08;;;;;;;;;;;;;;;5.40;95.69;98999.28;4995675;28;961;-86
2021/12/01 00:56:33;;;;;;;;;;;;;;;5.42;95.05;98993.59;4978913;28;1378;-86
2021/12/01 00:58:58;;;;;;;;;;;;;;;5.43;95.68;98989.78;4978123;28;1711;-87
2021/12/01 01:01:23;;;;;;;;;;;;;;;5.45;95.70;98987.56;4979023;28;1219;-87
2021/12/01 01:03:49;;;;;;;;;;;;;;;5.46;95.02;98987.28;4978586;28;1391;-87
2021/12/01 01:06:14;;;;;;;;;;;;;;;5.47;95.67;98986.19;4978051;28;1975;-85
2021/12/01 01:08:39;;;;;;;;;;;;;;;5.48;95.04;98976.16;4997560;28;1279;-86
2021/12/01 01:16:25;;;;;;;;;;;;;;;5.51;95.34;98968.28;4997181;28;620;-86
2021/12/01 01:18:55;;;;;;;;;;;;;;;5.54;95.18;98967.69;4979425;28;1691;-86
2021/12/01 01:21:20;;;;;;;;;;;;;;;5.59;95.70;98956.00;4997522;28;988;-85
2021/12/01 01:23:45;;;;;;;;;;;;;;;5.68;95.82;98946.94;4981253;28;1466;-86
2021/12/01 01:26:12;;;;;;;;;;;;;;;5.74;95.12;98944.16;4980032;28;1989;-87
2021/12/01 01:28:37;;;;;;;;;;;;;;;5.74;94.70;98942.28;4994235;28;1611;-87
2021/12/01 01:31:02;;;;;;;;;;;;;;;5.77;95.05;98935.47;4977026;28;1178;-87
2021/12/01 01:33:28;;;;;;;;;;;;;;;5.78;94.79;98937.09;4977237;28;1527;-87
2021/12/01 01:35:53;;;;;;;;;;;;;;;5.84;94.72;98942.16;4977843;28;1309;-87
2021/12/01 01:38:19;;;;;;;;;;;;;;;5.93;95.39;98926.09;4977219;28;1322;-86
2021/12/01 01:40:44;;;;;;;;;;;;;;;5.99;94.91;98923.03;4994915;28;1531;-85
2021/12/01 01:43:09;;;;;;;;;;;;;;;5.97;95.06;98913.53;4977484;28;1295;-87
2021/12/01 01:45:34;;;;;;;;;;;;;;;5.93;95.09;98917.94;4977196;28;1902;-86
2021/12/01 01:48:03;;;;;;;;;;;;;;;5.95;95.09;98910.31;4977489;28;1291;-86
2021/12/01 01:50:36;;;;;;;;;;;;;;;5.93;94.46;98899.75;4977157;28;1378;-86
2021/12/01 01:53:03;;;;;;;;;;;;;;;5.95;94.40;98894.03;4977283;28;1364;-86
2021/12/01 01:55:28;;;;;;;;;;;;;;;5.93;94.79;98886.16;4977435;28;1198;-86
2021/12/01 01:57:53;;;;;;;;;;;;;;;5.98;94.37;98874.41;4996287;28;1280;-85
2021/12/01 02:00:18;;;;;;;;;;;;;;;6.01;95.06;98871.94;4977327;28;1161;-86
2021/12/01 02:02:45;;;;;;;;;;;;;;;5.99;94.54;98862.47;4977142;28;1221;-87
2021/12/01 02:05:10;;;;;;;;;;;;;;;6.01;94.75;98865.69;4994680;28;1898;-86
2021/12/01 02:07:35;;;;;;;;;;;;;;;5.98;95.30;98856.22;4976961;28;1149;-87
2021/12/01 02:10:01;;;;;;;;;;;;;;;5.97;94.99;98853.78;4977738;28;1651;-86
2021/12/01 02:12:26;;;;;;;;;;;;;;;5.97;94.65;98846.44;4981182;28;1244;-86
2021/12/01 02:14:51;;;;;;;;;;;;;;;5.96;95.62;98842.13;4998564;28;827;-86
2021/12/01 02:17:16;;;;;;;;;;;;;;;5.99;95.00;98846.16;4981103;28;989;-87
2021/12/01 02:19:42;;;;;;;;;;;;;;;6.02;94.67;98834.72;4998715;28;1630;-86
2021/12/01 02:22:07;;;;;;;;;;;;;;;6.02;94.81;98832.81;4981093;28;1437;-86
2021/12/01 02:24:32;;;;;;;;;;;;;;;6.01;95.53;98833.13;4980904;28;1075;-87
2021/12/01 02:26:57;;;;;;;;;;;;;;;6.03;94.91;98828.22;4980277;28;1906;-85
2021/12/01 02:29:24;;;;;;;;;;;;;;;6.03;95.33;98818.16;4979975;28;1686;-87
2021/12/01 02:31:50;;;;;;;;;;;;;;;6.05;95.31;98824.06;4981023;28;1156;-86
2021/12/01 02:34:20;;;;;;;;;;;;;;;6.04;95.43;98810.78;4980536;28;1233;-87
2021/12/01 02:36:50;;;;;;;;;;;;;;;6.03;95.42;98807.28;4980601;28;1296;-86
2021/12/01 02:39:16;;;;;;;;;;;;;;;6.04;95.35;98797.19;4980511;28;1548;-86
2021/12/01 02:41:42;;;;;;;;;;;;;;;6.07;95.49;98802.06;4980865;28;1360;-87
2021/12/01 02:44:07;;;;;;;;;;;;;;;6.06;95.62;98797.72;4980250;28;1230;-87
2021/12/01 02:46:34;;;;;;;;;;;;;;;6.05;95.32;98796.91;4980794;28;1964;-87
2021/12/01 02:49:00;;;;;;;;;;;;;;;6.06;95.77;98786.88;4979824;28;1626;-87
2021/12/01 02:51:28;;;;;;;;;;;;;;;6.05;95.04;98793.38;4980014;28;1660;-87
2021/12/01 02:53:53;;;;;;;;;;;;;;;6.03;95.70;98776.59;4980257;28;1337;-87
2021/12/01 02:56:21;;;;;;;;;;;;;;;6.05;95.30;98767.03;4980292;28;1344;-87
2021/12/01 02:58:46;;;;;;;;;;;;;;;6.08;95.15;98771.91;4996982;28;1178;-87
2021/12/01 03:01:13;;;;;;;;;;;;;;;6.11;95.51;98765.09;4997118;28;1332;-86
2021/12/01 03:03:39;;;;;;;;;;;;;;;6.10;95.72;98749.88;4997223;28;849;-86
2021/12/01 03:06:05;;;;;;;;;;;;;;;6.08;95.81;98750.16;4997322;28;1898;-86
2021/12/01 03:08:30;;;;;;;;;;;;;;;6.07;95.07;98745.84;4996934;28;1292;-85
2021/12/01 03:10:56;;;;;;;;;;;;;;;6.08;94.96;98735.78;4986306;28;1662;-87
2021/12/01 03:13:22;;;;;;;;;;;;;;;6.07;95.56;98734.97;4979643;28;1284;-86
2021/12/01 03:15:47;;;;;;;;;;;;;;;6.05;95.05;98731.72;5012054;28;1315;-87
2021/12/01 03:18:13;;;;;;;;;;;;;;;6.04;95.92;98730.13;4996813;28;1225;-87
2021/12/01 03:20:38;;;;;;;;;;;;;;;6.08;95.45;98716.75;4979432;28;1296;-87
2021/12/01 03:23:04;;;;;;;;;;;;;;;6.07;95.38;98712.44;4979840;28;1282;-86
2021/12/01 03:25:29;;;;;;;;;;;;;;;6.10;95.36;98717.28;4979468;28;1963;-87
2021/12/01 03:27:54;;;;;;;;;;;;;;;6.08;96.04;98714.84;4979422;28;1288;-87
2021/12/01 03:30:20;;;;;;;;;;;;;;;6.09;95.12;98710.25;4996522;28;1515;-87
2021/12/01 03:32:45;;;;;;;;;;;;;;;6.09;95.46;98710.25;4998560;28;1000;-86
2021/12/01 03:35:12;;;;;;;;;;;;;;;6.07;95.74;98694.22;4981323;28;1166;-87
2021/12/01 03:37:38;;;;;;;;;;;;;;;6.04;95.48;98681.22;4997999;28;1027;-86
2021/12/01 03:40:04;;;;;;;;;;;;;;;6.05;95.53;98685.56;4978454;28;1254;-86
2021/12/01 03:42:29;;;;;;;;;;;;;;;6.06;96.02;98683.66;4996307;28;1191;-86
2021/12/01 03:44:56;;;;;;;;;;;;;;;6.07;95.78;98680.66;4978954;28;1241;-87
2021/12/01 03:47:21;;;;;;;;;;;;;;;6.10;95.88;98683.88;4979712;28;1345;-86
2021/12/01 03:49:46;;;;;;;;;;;;;;;6.09;96.07;98672.22;4978932;28;1235;-86
2021/12/01 03:52:16;;;;;;;;;;;;;;;6.07;95.89;98669.78;4979489;28;1348;-86
2021/12/01 03:54:41;;;;;;;;;;;;;;;6.11;95.91;98659.16;4979639;28;1358;-88
2021/12/01 03:57:06;;;;;;;;;;;;;;;6.11;95.56;98647.47;4997398;28;1572;-86
2021/12/01 03:59:31;;;;;;;;;;;;;;;6.12;95.46;98652.63;4996642;28;1488;-86
2021/12/01 04:01:57;;;;;;;;;;;;;;;6.16;95.89;98642.75;4979242;28;1186;-86
2021/12/01 04:04:22;;;;;;;;;;;;;;;6.15;95.81;98638.41;4979692;28;831;-86
2021/12/01 04:06:47;;;;;;;;;;;;;;;6.16;95.96;98634.59;4979654;28;1931;-86
2021/12/01 04:09:12;;;;;;;;;;;;;;;6.12;96.08;98622.75;4978902;28;1535;-86
2021/12/01 04:11:38;;;;;;;;;;;;;;;6.13;95.64;98627.03;4979682;28;1303;-86
2021/12/01 04:14:03;;;;;;;;;;;;;;;6.12;95.50;98613.78;4997597;28;1525;-87
2021/12/01 04:16:28;;;;;;;;;;;;;;;6.13;95.70;98612.66;4979029;28;1600;-86
2021/12/01 04:18:53;;;;;;;;;;;;;;;6.17;96.21;98624.56;4979138;28;1537;-87
2021/12/01 04:21:20;;;;;;;;;;;;;;;6.18;96.05;98613.38;4978995;28;1238;-87
2021/12/01 04:23:45;;;;;;;;;;;;;;;6.16;95.48;98618.31;4978645;28;1323;-87
2021/12/01 04:26:14;;;;;;;;;;;;;;;6.17;95.94;98613.69;4979142;28;1895;-86
2021/12/01 04:28:39;;;;;;;;;;;;;;;6.21;95.59;98606.56;4995803;28;1183;-87
2021/12/01 04:31:05;;;;;;;;;;;;;;;6.21;95.40;98604.63;4978764;28;1170;-86
2021/12/01 04:33:30;;;;;;;;;;;;;;;6.20;95.61;98599.53;4977782;28;1277;-87
2021/12/01 04:35:56;;;;;;;;;;;;;;;6.22;95.99;98597.28;4979048;28;1496;-87
2021/12/01 04:38:21;;;;;;;;;;;;;;;6.26;95.97;98595.59;4978109;28;1222;-86
2021/12/01 04:40:46;;;;;;;;;;;;;;;6.23;95.93;98599.72;4995442;28;801;-86
2021/12/01 04:43:11;;;;;;;;;;;;;;;6.24;95.85;98604.03;4978000;28;827;-87
2021/12/01 04:45:41;;;;;;;;;;;;;;;6.27;96.06;98587.16;4995314;28;1891;-86
2021/12/01 04:48:06;;;;;;;;;;;;;;;6.28;95.39;98582.53;4977747;28;1229;-86
2021/12/01 04:50:32;;;;;;;;;;;;;;;6.28;95.97;98577.91;4980735;28;1210;-86
2021/12/01 04:52:58;;;;;;;;;;;;;;;6.27;95.38;98581.72;4998623;28;993;-87
2021/12/01 04:55:24;;;;;;;;;;;;;;;6.26;95.22;98585.53;4980128;28;1586;-87
2021/12/01 04:57:49;;;;;;;;;;;;;;;6.23;95.52;98580.69;4998127;28;854;-87
2021/12/01 05:00:17;;;;;;;;;;;;;;;6.24;95.79;98578.78;4998780;28;1232;-86
2021/12/01 05:02:42;;;;;;;;;;;;;;;6.22;95.24;98579.06;4980857;28;1190;-87
2021/12/01 05:05:07;;;;;;;;;;;;;;;6.26;95.61;98574.66;4997359;28;1969;-86
2021/12/01 05:07:33;;;;;;;;;;;;;;;6.26;95.36;98563.00;4981653;28;1536;-87
2021/12/01 05:09:58;;;;;;;;;;;;;;;6.23;95.97;98563.59;4977677;28;1301;-87
2021/12/01 05:12:23;;;;;;;;;;;;;;;6.22;95.64;98568.22;4978872;28;1354;-87
2021/12/01 05:14:49;;;;;;;;;;;;;;;6.20;95.61;98548.72;4979673;28;1265;-86
2021/12/01 05:17:19;;;;;;;;;;;;;;;6.20;96.24;98543.28;4981291;28;1548;-87
2021/12/01 05:19:44;;;;;;;;;;;;;;;6.19;95.41;98535.44;4996640;28;1306;-87
2021/12/01 05:22:13;;;;;;;;;;;;;;;6.18;95.81;98529.19;4979276;28;1511;-87
2021/12/01 05:24:38;;;;;;;;;;;;;;;6.19;96.33;98525.38;4979093;28;1183;-87
2021/12/01 05:27:06;;;;;;;;;;;;;;;6.15;96.24;98518.09;4978510;28;1960;-86
2021/12/01 05:29:31;;;;;;;;;;;;;;;6.12;95.84;98502.41;4978605;28;1326;-87
2021/12/01 05:32:02;;;;;;;;;;;;;;;6.11;95.73;98489.94;4995469;28;1150;-87
2021/12/01 05:34:27;;;;;;;;;;;;;;;6.10;96.31;98488.31;4977839;28;1295;-88
2021/12/01 05:36:54;;;;;;;;;;;;;;;6.09;96.06;98482.09;4977550;28;1168;-90
2021/12/01 05:39:20;;;;;;;;;;;;;;;6.11;96.14;98471.75;4977186;28;1260;-89
2021/12/01 05:41:45;;;;;;;;;;;;;;;6.12;96.42;98459.78;4977756;28;1271;-87
2021/12/01 05:44:10;;;;;;;;;;;;;;;6.13;96.33;98465.97;4980042;28;1525;-85
2021/12/01 05:46:35;;;;;;;;;;;;;;;6.15;96.44;98463.78;4999024;28;1973;-85
2021/12/01 05:49:01;;;;;;;;;;;;;;;6.18;96.02;98453.13;4998553;28;1949;-86
2021/12/01 05:51:26;;;;;;;;;;;;;;;6.20;96.48;98455.53;4981779;28;1418;-86
2021/12/01 05:53:51;;;;;;;;;;;;;;;6.22;96.39;98443.25;5000417;28;996;-86
2021/12/01 05:56:16;;;;;;;;;;;;;;;6.21;96.33;98438.13;4998758;28;1421;-85
2021/12/01 05:58:42;;;;;;;;;;;;;;;6.20;95.75;98437.34;4976308;28;1324;-85
2021/12/01 06:01:07;;;;;;;;;;;;;;;6.22;96.00;98426.16;4995973;28;1755;-86
2021/12/01 06:03:34;;;;;;;;;;;;;;;6.22;95.78;98420.72;4997476;28;1469;-85
2021/12/01 06:05:59;;;;;;;;;;;;;;;6.22;95.99;98410.66;4997725;28;1902;-86
2021/12/01 06:08:24;;;;;;;;;;;;;;;6.23;96.41;98419.59;4980889;28;1684;-85
2021/12/01 06:10:50;;;;;;;;;;;;;;;6.23;95.84;98408.75;4980541;28;1051;-86
2021/12/01 06:13:17;;;;;;;;;;;;;;;6.20;96.08;98410.16;4982065;28;1386;-86
2021/12/01 06:15:42;;;;;;;;;;;;;;;6.18;96.43;98408.84;4983082;28;1475;-86
2021/12/01 06:18:07;;;;;;;;;;;;;;;6.19;95.90;98413.19;5001787;28;1734;-86
2021/12/01 06:20:33;;;;;;;;;;;;;;;6.22;95.77;98420.72;4986191;28;1292;-86
2021/12/01 06:22:58;;;;;;;;;;;;;;;6.21;95.97;98422.63;5000924;28;992;-86
2021/12/01 06:25:23;;;;;;;;;;;;;;;6.23;96.21;98411.47;4986210;28;1928;-86
2021/12/01 06:27:48;;;;;;;;;;;;;;;6.27;95.64;98416.00;4983265;28;1332;-87
2021/12/01 06:30:14;;;;;;;;;;;;;;;6.21;96.26;98409.03;4983200;28;1269;-86
2021/12/01 06:32:39;;;;;;;;;;;;;;;6.17;96.07;98418.91;4982951;28;1273;-86
2021/12/01 06:35:04;;;;;;;;;;;;;;;6.14;96.38;98415.97;4984403;28;1016;-87
2021/12/01 06:37:29;;;;;;;;;;;;;;;6.13;95.72;98406.22;4985019;28;1185;-86
2021/12/01 06:39:55;;;;;;;;;;;;;;;6.14;96.29;98402.41;5002535;28;1291;-86
2021/12/01 06:42:20;;;;;;;;;;;;;;;6.11;96.25;98398.41;5002375;28;855;-86
2021/12/01 06:44:45;;;;;;;;;;;;;;;6.10;96.43;98391.34;4984960;28;1196;-87
2021/12/01 06:47:10;;;;;;;;;;;;;;;6.12;95.97;98385.63;4985896;28;1955;-87
2021/12/01 06:49:35;;;;;;;;;;;;;;;6.12;95.65;98377.47;4983973;28;1278;-87
2021/12/01 06:52:01;;;;;;;;;;;;;;;6.14;95.90;98362.47;4983622;28;1342;-87
2021/12/01 06:54:26;;;;;;;;;;;;;;;6.14;96.13;98351.59;4983190;28;1260;-86
2021/12/01 06:56:51;;;;;;;;;;;;;;;6.19;96.31;98348.81;4985548;28;1299;-87
2021/12/01 06:59:16;;;;;;;;;;;;;;;6.19;95.89;98340.66;5005818;28;1212;-87
2021/12/01 07:01:41;;;;;;;;;;;;;;;6.19;95.81;98340.66;4986866;28;1154;-87
2021/12/01 07:04:07;;;;;;;;;;;;;;;6.19;95.40;98342.56;4987307;28;1393;-86
2021/12/01 07:06:32;;;;;;;;;;;;;;;6.18;95.18;98333.59;5003870;28;1959;-85
2021/12/01 07:09:00;;;;;;;;;;;;;;;6.18;95.92;98316.50;5003868;28;1368;-87
2021/12/01 07:11:25;;;;;;;;;;;;;;;6.20;95.32;98314.28;4987633;28;1239;-87
2021/12/01 07:13:50;;;;;;;;;;;;;;;6.21;95.39;98313.19;4986994;28;1334;-87
2021/12/01 07:16:16;;;;;;;;;;;;;;;6.21;95.64;98302.31;4987240;28;1218;-87
2021/12/01 07:18:41;;;;;;;;;;;;;;;6.21;94.87;98297.66;5004550;28;1287;-86
2021/12/01 07:21:06;;;;;;;;;;;;;;;6.22;95.58;98295.75;4986698;28;1250;-86
2021/12/01 07:23:32;;;;;;;;;;;;;;;6.23;94.54;98287.31;4986314;28;916;-87
2021/12/01 07:25:57;;;;;;;;;;;;;;;6.24;95.01;98277.25;4985329;28;1933;-86
2021/12/01 07:28:22;;;;;;;;;;;;;;;6.23;94.42;98267.47;4986810;28;1453;-86
2021/12/01 07:30:47;;;;;;;;;;;;;;;6.22;94.14;98274.81;4986132;28;954;-87
2021/12/01 07:33:12;;;;;;;;;;;;;;;6.22;94.83;98271.31;4985678;28;1045;-86
2021/12/01 07:35:37;;;;;;;;;;;;;;;6.24;94.08;98250.06;5004365;28;759;-87
2021/12/01 07:38:02;;;;;;;;;;;;;;;6.24;94.10;98240.03;5003180;28;1297;-86
2021/12/01 07:40:28;;;;;;;;;;;;;;;6.23;94.45;98237.59;4985565;28;1022;-86
2021/12/01 07:42:53;;;;;;;;;;;;;;;6.22;93.59;98225.13;4985795;28;1087;-87
2021/12/01 07:45:18;;;;;;;;;;;;;;;6.21;94.19;98218.88;4985769;28;1961;-87
2021/12/01 07:47:43;;;;;;;;;;;;;;;6.22;93.88;98206.13;4985696;28;823;-86
2021/12/01 07:50:09;;;;;;;;;;;;;;;6.22;93.61;98211.53;4984917;28;1404;-87
2021/12/01 07:52:35;;;;;;;;;;;;;;;6.23;93.89;98208.53;5003680;28;939;-86
2021/12/01 07:55:00;;;;;;;;;;;;;;;6.24;93.63;98207.41;5002611;28;845;-87
2021/12/01 07:57:26;;;;;;;;;;;;;;;6.29;93.21;98206.50;4985634;28;1458;-86
2021/12/01 07:59:51;;;;;;;;;;;;;;;6.28;93.56;98196.75;4984300;28;1193;-86
2021/12/01 08:02:16;;;;;;;;;;;;;;;6.25;93.33;98200.06;4986940;28;831;-86
2021/12/01 08:04:42;;;;;;;;;;;;;;;6.24;93.38;98199.28;4989007;28;1281;-86
2021/12/01 08:07:07;;;;;;;;;;;;;;;6.27;93.32;98197.88;4990093;28;1961;-85
2021/12/01 08:09:32;;;;;;;;;;;;;;;6.29;92.62;98192.94;4988938;28;1451;-86
2021/12/01 08:11:58;;;;;;;;;;;;;;;6.29;93.03;98191.03;4989559;28;1447;-86
2021/12/01 08:14:23;;;;;;;;;;;;;;;6.29;92.97;98180.16;4990449;28;1210;-86
2021/12/01 08:16:48;;;;;;;;;;;;;;;6.27;92.79;98171.50;4988442;28;1299;-86
2021/12/01 08:19:14;;;;;;;;;;;;;;;6.27;92.63;98170.69;4989584;28;1273;-86
2021/12/01 08:21:39;;;;;;;;;;;;;;;6.26;92.12;98164.47;4989873;28;1194;-85
2021/12/01 08:24:04;;;;;;;;;;;;;;;6.25;92.60;98156.63;4989309;28;1194;-86
2021/12/01 08:26:30;;;;;;;;;;;;;;;6.23;92.89;98158.81;5006786;28;1878;-84
2021/12/01 08:28:55;;;;;;;;;;;;;;;6.22;92.65;98160.75;5007245;28;1162;-85
2021/12/01 08:31:20;;;;;;;;;;;;;;;6.24;91.84;98152.28;4989346;28;1296;-86
2021/12/01 08:33:47;;;;;;;;;;;;;;;6.21;92.69;98156.41;4989232;28;1226;-86
2021/12/01 08:36:12;;;;;;;;;;;;;;;6.21;92.72;98150.22;4988824;28;1286;-86
2021/12/01 08:38:38;;;;;;;;;;;;;;;6.22;92.09;98151.78;4988030;28;1382;-85
2021/12/01 08:41:04;;;;;;;;;;;;;;;6.21;92.56;98142.84;4989746;28;1170;-85
2021/12/01 08:43:30;;;;;;;;;;;;;;;6.21;92.40;98144.78;4988643;28;1272;-86
2021/12/01 08:45:55;;;;;;;;;;;;;;;6.21;92.59;98150.97;4988713;28;1886;-85
2021/12/01 08:48:22;;;;;;;;;;;;;;;6.21;92.59;98142.06;4986501;28;1334;-86
2021/12/01 08:50:47;;;;;;;;;;;;;;;6.23;92.01;98132.47;5004863;28;1318;-85
2021/12/01 08:53:12;;;;;;;;;;;;;;;6.25;91.93;98132.97;4988501;28;1040;-85
2021/12/01 08:55:40;;;;;;;;;;;;;;;6.25;92.04;98137.59;4988117;28;1289;-85
2021/12/01 08:58:06;;;;;;;;;;;;;;;6.26;91.89;98131.84;4987522;28;1206;-86
2021/12/01 09:00:35;;;;;;;;;;;;;;;6.28;91.85;98126.13;5005607;28;984;-86
2021/12/01 09:03:00;;;;;;;;;;;;;;;6.28;91.80;98135.06;4988030;28;1338;-85
2021/12/01 09:05:25;;;;;;;;;;;;;;;6.31;92.30;98118.13;4988836;28;1902;-86
2021/12/01 09:07:51;;;;;;;;;;;;;;;6.31;91.99;98120.84;4988323;28;1068;-86
2021/12/01 09:10:16;;;;;;;;;;;;;;;6.31;92.00;98111.91;4988570;28;1297;-86
2021/12/01 09:12:43;;;;;;;;;;;;;;;6.30;91.65;98118.44;4989066;28;1301;-86
2021/12/01 09:15:09;;;;;;;;;;;;;;;6.30;91.68;98108.38;4988669;28;1355;-86
2021/12/01 09:17:34;;;;;;;;;;;;;;;6.28;91.86;98109.81;4987627;28;1212;-86
2021/12/01 09:20:01;;;;;;;;;;;;;;;6.26;92.08;98104.69;4987491;28;1341;-86
2021/12/01 09:22:26;;;;;;;;;;;;;;;6.24;91.41;98093.34;5005388;28;883;-85
2021/12/01 09:24:51;;;;;;;;;;;;;;;6.24;91.87;98085.19;5004866;28;1024;-86
2021/12/01 09:27:16;;;;;;;;;;;;;;;6.25;91.51;98083.28;5005365;28;1957;-86
2021/12/01 09:29:41;;;;;;;;;;;;;;;6.24;91.76;98068.09;5005743;28;1179;-85
2021/12/01 09:32:07;;;;;;;;;;;;;;;6.26;91.39;98071.28;4987697;28;1154;-86
2021/12/01 09:34:32;;;;;;;;;;;;;;;6.26;91.81;98072.09;4987495;28;1166;-86
2021/12/01 09:36:57;;;;;;;;;;;;;;;6.26;91.32;98074.81;4983472;28;1218;-86
2021/12/01 09:39:23;;;;;;;;;;;;;;;6.31;91.78;98066.53;4986983;28;1206;-85
2021/12/01 09:41:49;;;;;;;;;;;;;;;6.35;91.30;98069.44;4987950;28;1283;-85
2021/12/01 09:44:14;;;;;;;;;;;;;;;6.37;91.05;98065.28;4987848;28;1319;-86
2021/12/01 09:46:39;;;;;;;;;;;;;;;6.39;90.96;98046.75;5005944;28;1946;-85
2021/12/01 09:49:04;;;;;;;;;;;;;;;6.41;91.21;98041.00;4987200;28;1210;-86
2021/12/01 09:51:30;;;;;;;;;;;;;;;6.42;91.03;98042.59;4987625;28;1158;-85
2021/12/01 09:53:55;;;;;;;;;;;;;;;6.43;90.38;98038.78;5020459;28;1292;-86
2021/12/01 09:56:21;;;;;;;;;;;;;;;6.45;90.35;98033.84;4988833;28;1352;-85
2021/12/01 09:58:46;;;;;;;;;;;;;;;6.44;90.30;98022.16;4986793;28;1243;-85
2021/12/01 10:01:14;;;;;;;;;;;;;;;6.47;90.11;98021.53;5005598;28;896;-86
2021/12/01 10:03:40;;;;;;;;;;;;;;;6.52;90.13;98017.88;5005984;28;845;-86
2021/12/01 10:06:10;;;;;;;;;;;;;;;6.53;90.29;98003.19;5006104;28;1898;-86
2021/12/01 10:08:36;;;;;;;;;;;;;;;6.52;90.28;97998.06;4988796;28;1227;-86
2021/12/01 10:11:08;;;;;;;;;;;;;;;6.51;90.17;97988.28;5004461;28;1581;-85
2021/12/01 10:13:37;;;;;;;;;;;;;;;6.53;89.97;97977.91;4988982;28;1233;-85
2021/12/01 10:16:02;;;;;;;;;;;;;;;6.55;89.47;97986.56;4988422;28;1206;-86
2021/12/01 10:18:29;;;;;;;;;;;;;;;6.58;89.34;97980.47;5006014;28;1214;-86
2021/12/01 10:20:55;;;;;;;;;;;;;;;6.59;89.78;97974.72;4987555;28;1248;-86
2021/12/01 10:23:21;;;;;;;;;;;;;;;6.59;89.30;97972.00;5005908;28;1383;-86
2021/12/01 10:25:46;;;;;;;;;;;;;;;6.64;89.32;97974.56;5005846;28;1867;-86
2021/12/01 10:28:31;;;;;;;;;;;;;;;6.67;89.18;97973.94;4987898;28;1223;-86
2021/12/01 10:30:56;;;;;;;;;;;;;;;6.68;89.24;97974.75;4988578;28;1277;-85
2021/12/01 10:33:21;;;;;;;;;;;;;;;6.70;88.63;97961.66;5008372;28;1047;-86
2021/12/01 10:35:46;;;;;;;;;;;;;;;6.71;88.47;97964.06;5008087;28;1008;-86
2021/12/01 10:38:13;;;;;;;;;;;;;;;6.74;88.79;97943.56;4988511;28;1320;-86
2021/12/01 10:40:39;;;;;;;;;;;;;;;6.76;88.53;97944.06;4988561;28;1191;-87
2021/12/01 10:43:06;;;;;;;;;;;;;;;6.78;88.13;97936.41;4983750;28;1193;-87
2021/12/01 10:45:33;;;;;;;;;;;;;;;6.79;88.97;97929.84;4983292;28;1950;-86
2021/12/01 10:47:59;;;;;;;;;;;;;;;6.78;88.48;97925.53;4983472;28;1338;-86
2021/12/01 10:50:26;;;;;;;;;;;;;;;6.82;87.98;97916.41;4983066;28;1345;-87
2021/12/01 10:53:05;;;;;;;;;;;;;;;6.86;87.92;97916.56;4983344;28;1257;-87
2021/12/01 10:55:31;;;;;;;;;;;;;;;6.84;87.90;97911.44;4984333;28;1180;-87
2021/12/01 10:57:59;;;;;;;;;;;;;;;6.79;87.90;97895.31;4983405;28;1233;-87
2021/12/01 11:00:26;;;;;;;;;;;;;;;6.77;88.19;97902.16;4984372;28;1139;-86
2021/12/01 11:02:53;;;;;;;;;;;;;;;6.76;88.08;97886.97;4982752;28;1217;-86
2021/12/01 11:05:44;;;;;;;;;;;;;;;6.76;88.49;97886.97;4983982;28;1902;-86
2021/12/01 11:08:17;;;;;;;;;;;;;;;6.74;88.56;97883.75;4998661;28;1193;-86
2021/12/01 11:10:43;;;;;;;;;;;;;;;6.73;88.45;97890.31;4983868;28;1217;-87
2021/12/01 11:13:09;;;;;;;;;;;;;;;6.72;88.44;97872.44;5001550;28;961;-87
2021/12/01 11:15:37;;;;;;;;;;;;;;;6.74;88.75;97881.06;5001727;28;759;-87
2021/12/01 11:18:02;;;;;;;;;;;;;;;6.74;88.28;97867.47;5001736;28;1213;-85
2021/12/01 11:20:32;;;;;;;;;;;;;;;6.75;88.54;97869.88;4984258;28;1290;-87
2021/12/01 11:23:09;;;;;;;;;;;;;;;6.75;88.43;97867.16;5001666;28;897;-86
2021/12/01 11:25:36;;;;;;;;;;;;;;;6.76;88.65;97851.63;4983405;28;1965;-86
2021/12/01 11:28:02;;;;;;;;;;;;;;;6.77;88.45;97851.31;5000885;28;1209;-86
2021/12/01 11:30:27;;;;;;;;;;;;;;;6.79;88.20;97845.56;4982983;28;1126;-86
2021/12/01 11:32:52;;;;;;;;;;;;;;;6.82;88.60;97836.75;5001340;28;1047;-87
2021/12/01 11:35:18;;;;;;;;;;;;;;;6.82;88.61;97836.75;4983467;28;1187;-87
2021/12/01 11:37:43;;;;;;;;;;;;;;;6.82;88.53;97837.56;4983387;28;1305;-86
2021/12/01 11:40:09;;;;;;;;;;;;;;;6.79;88.38;97835.50;4983423;28;1299;-87
2021/12/01 11:42:34;;;;;;;;;;;;;;;6.84;88.47;97840.75;4983506;28;1256;-86
2021/12/01 11:44:59;;;;;;;;;;;;;;;6.84;88.50;97837.25;5001975;28;913;-87
2021/12/01 11:47:24;;;;;;;;;;;;;;;6.84;88.46;97824.44;5000918;28;1882;-87
2021/12/01 11:49:51;;;;;;;;;;;;;;;6.83;88.56;97830.19;4982416;28;1239;-87
2021/12/01 11:52:17;;;;;;;;;;;;;;;6.84;88.55;97816.28;4982670;28;1146;-86
2021/12/01 11:54:44;;;;;;;;;;;;;;;6.87;88.38;97816.78;4983459;28;1196;-87
2021/12/01 11:57:10;;;;;;;;;;;;;;;6.87;88.59;97811.34;4983373;28;1272;-86
2021/12/01 11:59:36;;;;;;;;;;;;;;;6.87;88.65;97803.97;4984282;28;1237;-86
2021/12/01 12:02:19;;;;;;;;;;;;;;;6.86;88.50;97805.09;4983235;28;1218;-86
2021/12/01 12:04:45;;;;;;;;;;;;;;;6.86;88.41;97796.94;4983033;28;1268;-87
2021/12/01 12:07:12;;;;;;;;;;;;;;;6.87;88.74;97795.81;5000268;28;1903;-87
2021/12/01 12:09:38;;;;;;;;;;;;;;;6.89;88.38;97790.06;4982436;28;1269;-86
2021/12/01 12:12:19;;;;;;;;;;;;;;;6.92;88.54;97798.34;4982196;28;1264;-86
2021/12/01 12:14:44;;;;;;;;;;;;;;;6.96;88.30;97784.94;4982473;28;1225;-86
2021/12/01 12:17:34;;;;;;;;;;;;;;;6.95;88.58;97780.59;4986921;28;973;-85
2021/12/01 12:20:23;;;;;;;;;;;;;;;6.95;88.21;97775.97;4995363;28;1255;-86
2021/12/01 12:22:49;;;;;;;;;;;;;;;6.95;88.55;97775.97;4985664;28;1340;-87
2021/12/01 12:25:33;;;;;;;;;;;;;;;6.95;88.30;97773.25;4984132;28;1957;-85
2021/12/01 12:27:58;;;;;;;;;;;;;;;6.95;88.34;97772.44;5001656;28;1225;-85
2021/12/01 12:30:29;;;;;;;;;;;;;;;6.95;88.42;97750.69;5002016;28;806;-87
2021/12/01 12:33:13;;;;;;;;;;;;;;;6.99;88.43;97767.94;4983530;28;1283;-87
2021/12/01 12:35:42;;;;;;;;;;;;;;;6.99;88.34;97740.75;4983694;28;1174;-86
2021/12/01 12:38:08;;;;;;;;;;;;;;;6.99;88.26;97738.03;4999568;28;1232;-86
2021/12/01 12:40:33;;;;;;;;;;;;;;;6.97;88.01;97746.53;5000326;28;838;-85
2021/12/01 12:43:08;;;;;;;;;;;;;;;6.97;88.58;97734.88;4983501;28;978;-86
2021/12/01 12:45:33;;;;;;;;;;;;;;;6.97;88.35;97738.38;4983089;28;1902;-86
2021/12/01 12:47:59;;;;;;;;;;;;;;;6.94;88.13;97714.53;4982864;28;1246;-86
2021/12/01 12:50:24;;;;;;;;;;;;;;;6.95;88.27;97721.59;5000855;28;925;-87
2021/12/01 12:53:08;;;;;;;;;;;;;;;6.93;88.41;97712.94;4984671;28;1435;-86
2021/12/01 12:55:41;;;;;;;;;;;;;;;6.95;88.67;97713.44;4986790;28;1403;-85
2021/12/01 12:58:08;;;;;;;;;;;;;;;6.93;88.47;97712.16;4985899;28;1307;-85
2021/12/01 13:00:38;;;;;;;;;;;;;;;6.96;88.42;97717.75;5005328;28;846;-85
2021/12/01 13:03:22;;;;;;;;;;;;;;;6.95;88.26;97710.72;5006060;28;901;-85
2021/12/01 13:05:48;;;;;;;;;;;;;;;6.95;88.44;97702.56;4988927;28;1895;-85
2021/12/01 13:08:25;;;;;;;;;;;;;;;6.95;88.59;97686.25;5005951;28;1206;-86
2021/12/01 13:10:50;;;;;;;;;;;;;;;6.95;88.43;97699.03;5002391;28;1020;-86